createdAt,value
2019-04-01T00:02:23.988Z,10.92
2019-04-01T00:05:12.631Z,10.92
2019-04-01T00:08:03.133Z,10.95
2019-04-01T00:10:51.942Z,10.90
2019-04-01T00:13:40.817Z,10.88
2019-04-01T00:16:29.809Z,10.93
2019-04-01T00:19:18.849Z,10.84
2019-04-01T00:22:07.941Z,10.79
2019-04-01T00:24:56.874Z,10.75
2019-04-01T00:27:45.337Z,10.74
2019-04-01T00:30:34.078Z,10.66
2019-04-01T00:33:23.005Z,10.66
2019-04-01T00:36:11.978Z,10.63
2019-04-01T00:39:01.236Z,10.60
2019-04-01T00:42:05.684Z,10.59
2019-04-01T00:44:53.849Z,10.56
2019-04-01T00:47:41.977Z,10.45
2019-04-01T00:50:30.810Z,10.37
2019-04-01T00:53:19.653Z,10.31
2019-04-01T00:56:07.810Z,10.18
2019-04-01T00:58:56.513Z,10.16
2019-04-01T01:01:44.757Z,10.16
2019-04-01T01:04:34.041Z,10.16
2019-04-01T01:07:22.488Z,10.16
2019-04-01T01:10:11.383Z,10.15
2019-04-01T01:12:59.741Z,10.13
2019-04-01T01:15:48.823Z,10.19
2019-04-01T01:18:37.971Z,10.16
2019-04-01T01:21:26.531Z,10.13
2019-04-01T01:24:15.231Z,10.15
2019-04-01T01:27:04.114Z,10.14
2019-04-01T01:29:52.831Z,10.19
2019-04-01T01:32:41.957Z,10.14
2019-04-01T01:35:30.449Z,10.09
2019-04-01T01:38:18.559Z,10.13
2019-04-01T01:41:07.436Z,10.04
2019-04-01T01:43:56.327Z,9.92
2019-04-01T01:46:45.189Z,9.89
2019-04-01T01:49:33.601Z,9.82
2019-04-01T01:52:21.769Z,9.78
2019-04-01T01:55:10.731Z,9.87
2019-04-01T01:57:58.865Z,9.86
2019-04-01T02:00:47.818Z,9.87
2019-04-01T02:03:36.049Z,9.79
2019-04-01T02:06:24.738Z,9.73
2019-04-01T02:09:13.000Z,9.68
2019-04-01T02:12:02.332Z,9.60
2019-04-01T02:14:50.660Z,9.62
2019-04-01T02:17:39.439Z,9.60
2019-04-01T02:20:28.035Z,9.60
2019-04-01T02:23:17.106Z,9.56
2019-04-01T02:26:05.803Z,9.56
2019-04-01T02:28:54.716Z,9.57
2019-04-01T02:31:43.407Z,9.60
2019-04-01T02:34:32.336Z,9.58
2019-04-01T02:37:20.691Z,9.54
2019-04-01T02:40:10.013Z,9.54
2019-04-01T02:42:58.839Z,9.55
2019-04-01T02:45:47.447Z,9.49
2019-04-01T02:48:36.375Z,9.48
2019-04-01T02:51:25.265Z,9.38
2019-04-01T02:54:14.344Z,9.38
2019-04-01T02:57:03.324Z,9.41
2019-04-01T02:59:51.576Z,9.46
2019-04-01T03:02:39.879Z,9.42
2019-04-01T03:05:28.202Z,9.46
2019-04-01T03:08:16.559Z,9.42
2019-04-01T03:11:09.912Z,9.39
2019-04-01T03:13:55.688Z,9.39
2019-04-01T03:16:44.307Z,9.43
2019-04-01T03:19:33.520Z,9.46
2019-04-01T03:22:22.498Z,9.41
2019-04-01T03:25:10.958Z,9.32
2019-04-01T03:27:59.406Z,9.28
2019-04-01T03:30:47.885Z,9.23
2019-04-01T03:33:36.482Z,9.11
2019-04-01T03:36:26.627Z,9.09
2019-04-01T03:39:15.377Z,9.05
2019-04-01T03:42:04.286Z,9.08
2019-04-01T03:44:55.256Z,9.07
2019-04-01T03:47:43.151Z,9.09
2019-04-01T03:50:31.668Z,9.12
2019-04-01T03:53:20.193Z,9.12
2019-04-01T03:56:08.514Z,9.03
2019-04-01T03:58:56.672Z,8.99
2019-04-01T04:01:45.652Z,8.99
2019-04-01T04:04:34.198Z,8.92
2019-04-01T04:07:23.248Z,8.97
2019-04-01T04:10:12.079Z,8.96
2019-04-01T04:13:01.040Z,8.87
2019-04-01T04:15:49.613Z,8.88
2019-04-01T04:18:38.364Z,8.81
2019-04-01T04:21:26.585Z,8.85
2019-04-01T04:24:15.434Z,8.87
2019-04-01T04:27:03.978Z,8.77
2019-04-01T04:29:52.786Z,8.80
2019-04-01T04:32:41.333Z,8.76
2019-04-01T04:35:30.457Z,8.72
2019-04-01T04:38:19.365Z,8.56
2019-04-01T04:41:07.908Z,8.45
2019-04-01T04:43:56.686Z,8.32
2019-04-01T04:46:44.875Z,8.28
2019-04-01T04:49:33.686Z,8.40
2019-04-01T04:52:22.321Z,8.50
2019-04-01T04:55:11.152Z,8.48
2019-04-01T04:58:00.032Z,8.45
2019-04-01T05:00:48.964Z,8.36
2019-04-01T05:03:37.982Z,8.31
2019-04-01T05:06:26.421Z,8.25
2019-04-01T05:09:15.301Z,8.28
2019-04-01T05:12:03.940Z,8.33
2019-04-01T05:14:52.656Z,8.37
2019-04-01T05:17:41.612Z,8.40
2019-04-01T05:20:31.638Z,8.40
2019-04-01T05:23:19.882Z,8.44
2019-04-01T05:26:09.596Z,8.43
2019-04-01T05:29:00.428Z,8.42
2019-04-01T05:31:50.179Z,8.37
2019-04-01T05:34:41.863Z,8.37
2019-04-01T05:37:30.056Z,8.44
2019-04-01T05:40:19.303Z,8.45
2019-04-01T05:43:07.384Z,8.48
2019-04-01T05:45:55.432Z,8.46
2019-04-01T05:48:44.387Z,8.51
2019-04-01T05:51:33.625Z,8.54
2019-04-01T05:54:22.476Z,8.57
2019-04-01T05:57:11.664Z,8.60
2019-04-01T06:00:01.352Z,8.66
2019-04-01T06:02:49.903Z,8.69
2019-04-01T06:05:38.784Z,8.79
2019-04-01T06:08:27.620Z,8.88
2019-04-01T06:11:17.638Z,8.89
2019-04-01T06:14:06.674Z,8.88
2019-04-01T06:16:55.734Z,8.95
2019-04-01T06:19:44.987Z,8.98
2019-04-01T06:22:33.545Z,8.92
2019-04-01T06:25:22.689Z,8.96
2019-04-01T06:28:11.264Z,9.05
2019-04-01T06:31:00.006Z,9.05
2019-04-01T06:33:49.096Z,9.06
2019-04-01T06:36:38.944Z,9.13
2019-04-01T06:39:27.667Z,9.21
2019-04-01T06:42:15.964Z,9.32
2019-04-01T06:45:05.152Z,9.41
2019-04-01T06:47:53.661Z,9.35
2019-04-01T06:50:41.993Z,9.41
2019-04-01T06:53:31.411Z,9.47
2019-04-01T06:56:20.321Z,9.57
2019-04-01T06:59:08.462Z,9.65
2019-04-01T07:01:56.900Z,9.69
2019-04-01T07:04:45.805Z,9.80
2019-04-01T07:07:35.001Z,9.85
2019-04-01T07:10:25.029Z,9.87
2019-04-01T07:13:14.241Z,9.92
2019-04-01T07:16:14.624Z,9.85
2019-04-01T07:18:53.495Z,9.93
2019-04-01T07:21:43.329Z,10.00
2019-04-01T07:24:32.566Z,10.11
2019-04-01T07:27:21.614Z,10.16
2019-04-01T07:30:12.121Z,10.21
2019-04-01T07:33:00.847Z,10.33
2019-04-01T07:35:49.753Z,10.41
2019-04-01T07:38:38.851Z,10.48
2019-04-01T07:41:27.603Z,10.55
2019-04-01T07:44:16.849Z,10.49
2019-04-01T07:47:05.402Z,10.58
2019-04-01T07:49:53.999Z,10.62
2019-04-01T07:52:42.752Z,10.65
2019-04-01T07:55:31.906Z,10.72
2019-04-01T07:58:20.330Z,10.76
2019-04-01T08:01:09.386Z,10.85
2019-04-01T08:03:57.720Z,10.87
2019-04-01T08:06:46.182Z,10.98
2019-04-01T08:09:35.180Z,11.06
2019-04-01T08:12:27.676Z,10.97
2019-04-01T08:15:13.921Z,11.09
2019-04-01T08:18:02.756Z,11.18
2019-04-01T08:20:50.916Z,11.28
2019-04-01T08:23:39.927Z,11.36
2019-04-01T08:26:29.409Z,11.56
2019-04-01T08:29:29.368Z,11.50
2019-04-01T08:32:08.716Z,11.56
2019-04-01T08:34:57.669Z,11.63
2019-04-01T08:37:46.988Z,11.75
2019-04-01T08:40:35.774Z,11.81
2019-04-01T08:43:24.705Z,11.85
2019-04-01T08:46:13.593Z,11.96
2019-04-01T08:49:02.050Z,11.94
2019-04-01T08:51:51.528Z,12.06
2019-04-01T08:54:40.676Z,12.16
2019-04-01T08:57:29.763Z,12.31
2019-04-01T09:00:18.971Z,12.36
2019-04-01T09:03:07.439Z,12.50
2019-04-01T09:05:56.504Z,12.58
2019-04-01T09:08:46.705Z,12.66
2019-04-01T09:11:38.234Z,12.81
2019-04-01T09:14:24.893Z,12.93
2019-04-01T09:17:13.048Z,12.95
2019-04-01T09:20:02.953Z,13.05
2019-04-01T09:22:51.584Z,13.15
2019-04-01T09:25:40.331Z,13.20
2019-04-01T09:28:29.062Z,13.28
2019-04-01T09:31:17.446Z,13.34
2019-04-01T09:34:06.176Z,13.49
2019-04-01T09:36:55.322Z,13.64
2019-04-01T09:39:43.586Z,13.78
2019-04-01T09:42:32.312Z,13.87
2019-04-01T09:45:20.682Z,13.93
2019-04-01T09:48:08.966Z,14.04
2019-04-01T09:50:57.591Z,14.17
2019-04-01T09:53:46.333Z,14.25
2019-04-01T09:56:35.498Z,14.43
2019-04-01T09:59:24.049Z,14.49
2019-04-01T10:02:13.390Z,14.46
2019-04-01T10:05:01.782Z,14.44
2019-04-01T10:07:50.667Z,14.50
2019-04-01T10:10:40.541Z,14.67
2019-04-01T10:13:29.684Z,14.86
2019-04-01T10:16:17.990Z,15.00
2019-04-01T10:19:06.727Z,15.03
2019-04-01T10:21:54.995Z,15.15
2019-04-01T10:24:43.684Z,15.19
2019-04-01T10:27:32.325Z,15.17
2019-04-01T10:30:21.608Z,15.09
2019-04-01T10:33:09.911Z,15.19
2019-04-01T10:35:58.808Z,15.19
2019-04-01T10:38:47.846Z,15.33
2019-04-01T10:41:36.809Z,15.42
2019-04-01T10:44:25.587Z,15.37
2019-04-01T10:47:14.300Z,15.52
2019-04-01T10:50:02.992Z,15.53
2019-04-01T10:52:51.822Z,15.68
2019-04-01T10:55:40.442Z,15.82
2019-04-01T10:58:29.199Z,15.93
2019-04-01T11:01:18.278Z,16.04
2019-04-01T11:04:06.754Z,16.17
2019-04-01T11:06:55.315Z,16.01
2019-04-01T11:09:44.397Z,16.07
2019-04-01T11:12:33.107Z,16.00
2019-04-01T11:15:22.186Z,16.19
2019-04-01T11:18:12.018Z,16.29
2019-04-01T11:21:01.391Z,16.54
2019-04-01T11:23:50.653Z,16.64
2019-04-01T11:26:39.942Z,16.63
2019-04-01T11:29:28.646Z,16.67
2019-04-01T11:32:17.825Z,16.74
2019-04-01T11:35:07.227Z,16.89
2019-04-01T11:37:55.690Z,16.91
2019-04-01T11:40:44.382Z,16.89
2019-04-01T11:43:35.459Z,16.86
2019-04-01T11:46:23.231Z,17.07
2019-04-01T11:49:12.623Z,17.18
2019-04-01T11:52:01.447Z,17.21
2019-04-01T11:54:50.150Z,17.28
2019-04-01T11:57:38.687Z,17.29
2019-04-01T12:00:27.823Z,17.32
2019-04-01T12:03:16.807Z,17.34
2019-04-01T12:06:05.629Z,17.42
2019-04-01T12:08:54.123Z,17.53
2019-04-01T12:11:42.831Z,17.49
2019-04-01T12:14:32.293Z,17.71
2019-04-01T12:17:21.165Z,17.88
2019-04-01T12:20:09.905Z,18.06
2019-04-01T12:22:59.150Z,18.25
2019-04-01T12:25:48.526Z,18.39
2019-04-01T12:28:36.885Z,18.50
2019-04-01T12:31:25.979Z,18.43
2019-04-01T12:34:14.484Z,18.43
2019-04-01T12:37:04.726Z,18.48
2019-04-01T12:39:53.391Z,18.69
2019-04-01T12:42:42.357Z,18.86
2019-04-01T12:45:30.848Z,18.71
2019-04-01T12:48:18.926Z,18.79
2019-04-01T12:51:07.386Z,18.79
2019-04-01T12:53:56.449Z,18.88
2019-04-01T12:56:45.448Z,19.18
2019-04-01T12:59:34.289Z,19.15
2019-04-01T13:02:23.508Z,19.31
2019-04-01T13:05:12.075Z,19.57
2019-04-01T13:08:01.555Z,19.78
2019-04-01T13:10:50.827Z,19.75
2019-04-01T13:13:39.135Z,19.92
2019-04-01T13:16:28.094Z,20.06
2019-04-01T13:19:17.176Z,20.25
2019-04-01T13:22:05.984Z,20.44
2019-04-01T13:24:56.667Z,20.50
2019-04-01T13:27:45.557Z,20.56
2019-04-01T13:30:34.320Z,20.50
2019-04-01T13:33:23.278Z,20.72
2019-04-01T13:36:12.454Z,20.92
2019-04-01T13:39:04.086Z,20.89
2019-04-01T13:41:51.766Z,21.06
2019-04-01T13:44:40.600Z,21.21
2019-04-01T13:47:29.997Z,21.07
2019-04-01T13:50:19.091Z,21.10
2019-04-01T13:53:07.688Z,20.86
2019-04-01T13:55:56.712Z,21.32
2019-04-01T13:58:45.761Z,21.37
2019-04-01T14:01:34.939Z,21.85
2019-04-01T14:04:23.788Z,21.31
2019-04-01T14:07:12.666Z,21.63
2019-04-01T14:10:00.954Z,21.71
2019-04-01T14:12:49.398Z,22.25
2019-04-01T14:15:37.698Z,22.55
2019-04-01T14:18:26.071Z,23.19
2019-04-01T14:21:16.545Z,23.93
2019-04-01T14:24:04.772Z,24.30
2019-04-01T14:26:56.484Z,24.81
2019-04-01T14:29:43.406Z,25.37
2019-04-01T14:32:32.548Z,25.39
2019-04-01T14:35:23.865Z,26.15
2019-04-01T14:38:12.854Z,26.37
2019-04-01T14:41:01.347Z,27.08
2019-04-01T14:43:50.260Z,26.69
2019-04-01T14:46:39.237Z,26.58
2019-04-01T14:49:27.744Z,27.34
2019-04-01T14:52:31.179Z,27.63
2019-04-01T14:55:07.530Z,27.98
2019-04-01T14:58:00.164Z,27.85
2019-04-01T15:00:46.532Z,28.09
2019-04-01T15:03:35.663Z,28.24
2019-04-01T15:06:24.272Z,28.21
2019-04-01T15:09:13.714Z,28.34
2019-04-01T15:12:02.232Z,27.51
2019-04-01T15:14:50.861Z,28.06
2019-04-01T15:17:39.952Z,28.33
2019-04-01T15:20:29.032Z,28.42
2019-04-01T15:23:18.176Z,28.55
2019-04-01T15:26:06.552Z,28.73
2019-04-01T15:28:56.405Z,28.71
2019-04-01T15:31:45.473Z,28.37
2019-04-01T15:34:34.888Z,28.56
2019-04-01T15:37:23.756Z,28.50
2019-04-01T15:40:13.701Z,28.35
2019-04-01T15:43:02.588Z,28.15
2019-04-01T15:45:51.445Z,28.30
2019-04-01T15:48:40.389Z,27.89
2019-04-01T15:51:29.293Z,27.96
2019-04-01T15:54:18.106Z,27.79
2019-04-01T15:57:06.282Z,27.59
2019-04-01T15:59:55.095Z,27.50
2019-04-01T16:02:44.056Z,26.92
2019-04-01T16:05:34.232Z,26.76
2019-04-01T16:08:24.291Z,26.94
2019-04-01T16:11:14.126Z,26.77
2019-04-01T16:14:02.874Z,26.92
2019-04-01T16:16:51.599Z,26.63
2019-04-01T16:19:40.256Z,26.55
2019-04-01T16:22:29.284Z,26.03
2019-04-01T16:25:18.291Z,25.19
2019-04-01T16:28:07.141Z,24.32
2019-04-01T16:30:56.260Z,23.69
2019-04-01T16:33:45.782Z,22.97
2019-04-01T16:36:35.129Z,22.53
2019-04-01T16:39:24.487Z,21.69
2019-04-01T16:42:13.217Z,21.29
2019-04-01T16:45:02.233Z,21.07
2019-04-01T16:47:51.575Z,20.68
2019-04-01T16:50:39.866Z,20.42
2019-04-01T16:53:28.941Z,20.28
2019-04-01T16:56:17.874Z,19.95
2019-04-01T16:59:06.649Z,19.78
2019-04-01T17:01:57.717Z,19.60
2019-04-01T17:04:48.227Z,19.41
2019-04-01T17:07:36.827Z,19.27
2019-04-01T17:10:25.533Z,19.18
2019-04-01T17:13:16.236Z,19.08
2019-04-01T17:16:05.143Z,18.93
2019-04-01T17:18:53.756Z,18.80
2019-04-01T17:21:42.768Z,18.64
2019-04-01T17:24:31.905Z,18.39
2019-04-01T17:27:21.132Z,18.24
2019-04-01T17:30:12.130Z,18.08
2019-04-01T17:33:01.579Z,17.92
2019-04-01T17:35:50.443Z,17.46
2019-04-01T17:38:39.535Z,17.41
2019-04-01T17:41:28.774Z,17.37
2019-04-01T17:44:17.162Z,17.25
2019-04-01T17:47:06.326Z,17.14
2019-04-01T17:49:55.638Z,17.11
2019-04-01T17:52:44.603Z,17.00
2019-04-01T17:55:36.212Z,16.91
2019-04-01T17:58:25.135Z,16.76
2019-04-01T18:01:14.001Z,16.61
2019-04-01T18:04:02.861Z,16.49
2019-04-01T18:06:51.602Z,16.38
2019-04-01T18:09:40.285Z,16.27
2019-04-01T18:12:28.975Z,16.13
2019-04-01T18:15:20.619Z,16.08
2019-04-01T18:18:10.080Z,15.96
2019-04-01T18:21:00.281Z,15.81
2019-04-01T18:23:49.536Z,15.72
2019-04-01T18:26:38.343Z,15.63
2019-04-01T18:29:27.627Z,15.50
2019-04-01T18:32:16.898Z,15.39
2019-04-01T18:35:05.891Z,15.33
2019-04-01T18:37:54.838Z,15.23
2019-04-01T18:40:44.081Z,15.11
2019-04-01T18:43:32.886Z,15.05
2019-04-01T18:46:23.219Z,14.98
2019-04-01T18:49:12.459Z,14.86
2019-04-01T18:52:01.885Z,14.70
2019-04-01T18:54:51.115Z,14.68
2019-04-01T18:57:39.219Z,14.62
2019-04-01T19:00:28.192Z,14.52
2019-04-01T19:03:17.363Z,14.48
2019-04-01T19:06:07.347Z,14.42
2019-04-01T19:09:08.674Z,14.34
2019-04-01T19:11:46.627Z,14.30
2019-04-01T19:14:35.357Z,14.21
2019-04-01T19:17:24.401Z,14.18
2019-04-01T19:20:14.247Z,14.12
2019-04-01T19:23:02.875Z,14.02
2019-04-01T19:25:51.471Z,13.95
2019-04-01T19:28:40.709Z,13.90
2019-04-01T19:31:29.588Z,13.86
2019-04-01T19:34:18.671Z,13.81
2019-04-01T19:37:07.661Z,13.73
2019-04-01T19:39:56.801Z,13.65
2019-04-01T19:42:47.264Z,13.65
2019-04-01T19:45:36.590Z,13.62
2019-04-01T19:48:25.960Z,13.53
2019-04-01T19:51:14.756Z,13.44
2019-04-01T19:54:04.192Z,13.39
2019-04-01T19:56:52.803Z,13.37
2019-04-01T19:59:42.077Z,13.36
2019-04-01T20:02:34.065Z,13.31
2019-04-01T20:05:21.164Z,13.25
2019-04-01T20:08:10.497Z,13.17
2019-04-01T20:10:59.729Z,13.13
2019-04-01T20:13:48.288Z,13.12
2019-04-01T20:16:37.299Z,13.01
2019-04-01T20:19:26.473Z,12.94
2019-04-01T20:22:15.004Z,12.87
2019-04-01T20:25:03.267Z,12.77
2019-04-01T20:27:52.354Z,12.71
2019-04-01T20:30:42.700Z,12.71
2019-04-01T20:33:32.047Z,12.60
2019-04-01T20:36:28.400Z,12.57
2019-04-01T20:39:11.637Z,12.57
2019-04-01T20:41:59.997Z,12.52
2019-04-01T20:44:48.854Z,12.37
2019-04-01T20:47:37.604Z,12.42
2019-04-01T20:50:27.218Z,12.32
2019-04-01T20:53:19.006Z,12.39
2019-04-01T20:56:07.543Z,12.27
2019-04-01T20:58:56.667Z,12.23
2019-04-01T21:01:45.348Z,12.24
2019-04-01T21:04:34.154Z,12.18
2019-04-01T21:07:22.646Z,12.12
2019-04-01T21:10:11.259Z,12.05
2019-04-01T21:13:01.019Z,11.98
2019-04-01T21:15:50.146Z,11.87
2019-04-01T21:18:39.011Z,11.83
2019-04-01T21:21:28.230Z,11.83
2019-04-01T21:24:18.294Z,11.76
2019-04-01T21:27:07.003Z,11.66
2019-04-01T21:29:55.619Z,11.66
2019-04-01T21:32:45.321Z,11.67
2019-04-01T21:35:34.899Z,11.64
2019-04-01T21:38:23.728Z,11.57
2019-04-01T21:41:13.009Z,11.47
2019-04-01T21:44:02.123Z,11.33
2019-04-01T21:46:50.756Z,11.26
2019-04-01T21:49:39.357Z,11.21
2019-04-01T21:52:27.962Z,11.13
2019-04-01T21:55:17.331Z,11.06
2019-04-01T21:58:06.397Z,11.08
2019-04-01T22:00:56.450Z,11.04
2019-04-01T22:03:45.301Z,11.04
2019-04-01T22:06:34.216Z,10.98
2019-04-01T22:09:23.007Z,10.93
2019-04-01T22:12:12.057Z,11.00
2019-04-01T22:15:00.639Z,11.08
2019-04-01T22:17:49.318Z,11.04
2019-04-01T22:20:39.362Z,10.95
2019-04-01T22:23:28.455Z,10.94
2019-04-01T22:26:17.292Z,10.95
2019-04-01T22:29:06.295Z,10.93
2019-04-01T22:31:54.847Z,10.84
2019-04-01T22:34:43.262Z,10.82
2019-04-01T22:37:31.807Z,10.73
2019-04-01T22:40:20.756Z,10.68
2019-04-01T22:43:09.423Z,10.60
2019-04-01T22:45:58.324Z,10.54
2019-04-01T22:48:47.419Z,10.43
2019-04-01T22:51:36.435Z,10.39
2019-04-01T22:54:25.683Z,10.35
2019-04-01T22:57:14.439Z,10.34
2019-04-01T23:00:03.101Z,10.33
2019-04-01T23:02:51.309Z,10.25
2019-04-01T23:05:40.064Z,10.19
2019-04-01T23:08:28.431Z,10.15
2019-04-01T23:11:17.303Z,10.10
2019-04-01T23:14:06.020Z,10.07
2019-04-01T23:16:54.400Z,10.00
2019-04-01T23:19:42.747Z,9.92
2019-04-01T23:22:31.513Z,10.01
2019-04-01T23:25:20.358Z,9.96
2019-04-01T23:28:09.008Z,9.87
2019-04-01T23:30:57.915Z,9.80
2019-04-01T23:33:46.519Z,9.78
2019-04-01T23:36:36.155Z,9.70
2019-04-01T23:39:24.785Z,9.70
2019-04-01T23:42:13.573Z,9.69
2019-04-01T23:45:02.085Z,9.69
2019-04-01T23:47:50.305Z,9.66
2019-04-01T23:50:39.305Z,9.63
2019-04-01T23:53:27.531Z,9.63
2019-04-01T23:56:16.163Z,9.62
2019-04-01T23:59:05.145Z,9.54
